FDB1333 OMDB-VTBD
Flight info
| Callsign | FDB1333 |
|---|---|
| Flight time | 5h 42m |
| Altitude | 33000 |
| Route | IVURO M677 LALDO B505 NADSO B524 ALPOR M504 TELEM A791 PRA/N0461F350 A791 BPL T1 BBS N895 BETNO P646 TARED WEHHA3A |
| Aircraft | B738/M-SDE2E3FGHIRWXY/LB1 |
Departure
| Time | 2026-04-26 03:04 |
|---|---|
| Airport | Dubai International Airport (OMDB) |
Arrival
| Time | 2026-04-26 08:46 |
|---|---|
| Airport | Don Mueang International Airport (VTBD) |
| Time | Latitude | Longitude | Altitude | Speed | Heading |
|---|---|---|---|---|---|
| 2026-04-26 02:49 | 25.26267 | 55.36153 | 22 ft | 0 kts | 31° |
| 2026-04-26 02:56 | 25.26263 | 55.36151 | 20 ft | 3 kts | 31° |
| 2026-04-26 02:56 | 25.26240 | 55.36135 | 22 ft | 4 kts | 36° |
| 2026-04-26 02:56 | 25.26219 | 55.36116 | 21 ft | 4 kts | 45° |
| 2026-04-26 02:57 | 25.26203 | 55.36093 | 22 ft | 4 kts | 72° |
| 2026-04-26 02:57 | 25.26203 | 55.36074 | 23 ft | 0 kts | 122° |
| 2026-04-26 02:59 | 25.26201 | 55.36076 | 22 ft | 4 kts | 122° |
| 2026-04-26 02:59 | 25.26177 | 55.36121 | 21 ft | 8 kts | 120° |
| 2026-04-26 03:00 | 25.26147 | 55.36178 | 21 ft | 10 kts | 123° |
| 2026-04-26 03:00 | 25.26095 | 55.36269 | 22 ft | 18 kts | 121° |
| 2026-04-26 03:00 | 25.26013 | 55.36415 | 21 ft | 26 kts | 122° |
| 2026-04-26 03:00 | 25.25903 | 55.36609 | 21 ft | 33 kts | 121° |
| 2026-04-26 03:01 | 25.25771 | 55.36845 | 21 ft | 39 kts | 122° |
| 2026-04-26 03:01 | 25.25617 | 55.37116 | 21 ft | 44 kts | 122° |
| 2026-04-26 03:01 | 25.25449 | 55.37416 | 22 ft | 48 kts | 122° |
| 2026-04-26 03:01 | 25.25270 | 55.37736 | 21 ft | 48 kts | 122° |
| 2026-04-26 03:02 | 25.25106 | 55.38026 | 20 ft | 32 kts | 122° |
| 2026-04-26 03:02 | 25.25005 | 55.38167 | 20 ft | 19 kts | 167° |
| 2026-04-26 03:02 | 25.24889 | 55.38107 | 24 ft | 18 kts | 212° |
| 2026-04-26 03:02 | 25.24823 | 55.38000 | 24 ft | 18 kts | 282° |
| 2026-04-26 03:03 | 25.24937 | 55.37791 | 24 ft | 61 kts | 301° |
| 2026-04-26 03:03 | 25.25273 | 55.37185 | 30 ft | 122 kts | 301° |
| 2026-04-26 03:03 | 25.25807 | 55.36220 | 28 ft | 171 kts | 300° |
| 2026-04-26 03:03 | 25.26507 | 55.35004 | 315 ft | 195 kts | 304° |
| 2026-04-26 03:04 | 25.27298 | 55.33766 | 968 ft | 198 kts | 301° |
| 2026-04-26 03:04 | 25.27985 | 55.32487 | 1785 ft | 194 kts | 301° |
| 2026-04-26 03:04 | 25.28706 | 55.31135 | 2008 ft | 215 kts | 300° |
| 2026-04-26 03:04 | 25.29640 | 55.29823 | 2364 ft | 223 kts | 328° |
| 2026-04-26 03:05 | 25.31136 | 55.29425 | 2867 ft | 226 kts | 359° |
| 2026-04-26 03:05 | 25.32722 | 55.29488 | 3353 ft | 229 kts | 360° |
| 2026-04-26 03:05 | 25.34325 | 55.29544 | 3872 ft | 231 kts | 0° |
| 2026-04-26 03:05 | 25.35940 | 55.29603 | 4375 ft | 233 kts | 0° |
| 2026-04-26 03:06 | 25.37571 | 55.29651 | 4878 ft | 236 kts | 360° |
| 2026-04-26 03:06 | 25.39214 | 55.29942 | 5173 ft | 249 kts | 25° |
| 2026-04-26 03:06 | 25.40468 | 55.31280 | 5541 ft | 259 kts | 61° |
| 2026-04-26 03:06 | 25.40945 | 55.33186 | 5980 ft | 266 kts | 85° |
| 2026-04-26 03:07 | 25.40910 | 55.35302 | 6194 ft | 285 kts | 95° |
| 2026-04-26 03:07 | 25.40692 | 55.37512 | 6713 ft | 291 kts | 97° |
| 2026-04-26 03:07 | 25.40436 | 55.39751 | 7347 ft | 293 kts | 97° |
| 2026-04-26 03:07 | 25.40167 | 55.41999 | 7953 ft | 297 kts | 97° |
| 2026-04-26 03:08 | 25.39899 | 55.44281 | 8558 ft | 301 kts | 97° |
| 2026-04-26 03:08 | 25.39640 | 55.46590 | 9170 ft | 305 kts | 97° |
| 2026-04-26 03:08 | 25.39389 | 55.48931 | 9778 ft | 308 kts | 97° |
| 2026-04-26 03:08 | 25.39143 | 55.51303 | 10241 ft | 317 kts | 97° |
| 2026-04-26 03:09 | 25.38889 | 55.53811 | 10370 ft | 338 kts | 97° |
| 2026-04-26 03:09 | 25.38626 | 55.56459 | 10519 ft | 356 kts | 97° |
| 2026-04-26 03:09 | 25.38350 | 55.59255 | 10657 ft | 374 kts | 96° |
| 2026-04-26 03:09 | 25.38070 | 55.62121 | 10954 ft | 383 kts | 96° |
| 2026-04-26 03:10 | 25.37783 | 55.65064 | 11457 ft | 386 kts | 97° |
| 2026-04-26 03:10 | 25.37491 | 55.68063 | 12036 ft | 388 kts | 97° |
| 2026-04-26 03:10 | 25.37201 | 55.71034 | 12577 ft | 390 kts | 97° |
| 2026-04-26 03:10 | 25.36913 | 55.73981 | 13080 ft | 393 kts | 97° |
| 2026-04-26 03:11 | 25.36617 | 55.76995 | 13597 ft | 396 kts | 97° |
| 2026-04-26 03:11 | 25.36320 | 55.80024 | 14137 ft | 395 kts | 97° |
| 2026-04-26 03:11 | 25.36023 | 55.83045 | 14650 ft | 397 kts | 97° |
| 2026-04-26 03:11 | 25.35722 | 55.86090 | 15017 ft | 402 kts | 97° |
| 2026-04-26 03:12 | 25.35417 | 55.89182 | 15421 ft | 406 kts | 97° |
| 2026-04-26 03:12 | 25.35108 | 55.92294 | 15859 ft | 409 kts | 97° |
| 2026-04-26 03:12 | 25.34797 | 55.95430 | 16280 ft | 412 kts | 97° |
| 2026-04-26 03:12 | 25.34483 | 55.98583 | 16692 ft | 415 kts | 97° |
| 2026-04-26 03:13 | 25.34165 | 56.01770 | 17091 ft | 419 kts | 97° |
| 2026-04-26 03:13 | 25.33845 | 56.04982 | 17489 ft | 422 kts | 97° |
| 2026-04-26 03:13 | 25.33521 | 56.08219 | 17903 ft | 425 kts | 97° |
| 2026-04-26 03:13 | 25.33194 | 56.11486 | 18266 ft | 429 kts | 97° |
| 2026-04-26 03:14 | 25.32863 | 56.14767 | 18618 ft | 431 kts | 97° |
| 2026-04-26 03:14 | 25.32569 | 56.18085 | 18970 ft | 434 kts | 95° |
| 2026-04-26 03:14 | 25.32367 | 56.21427 | 19319 ft | 437 kts | 94° |
| 2026-04-26 03:14 | 25.32201 | 56.24759 | 19643 ft | 441 kts | 94° |
| 2026-04-26 03:15 | 25.32035 | 56.28154 | 19986 ft | 443 kts | 94° |
| 2026-04-26 03:15 | 25.31860 | 56.31559 | 20358 ft | 444 kts | 94° |
| 2026-04-26 03:15 | 25.31673 | 56.34976 | 20684 ft | 447 kts | 95° |
| 2026-04-26 03:15 | 25.31476 | 56.38421 | 20995 ft | 450 kts | 95° |
| 2026-04-26 03:16 | 25.31274 | 56.41885 | 21321 ft | 453 kts | 95° |
| 2026-04-26 03:16 | 25.31068 | 56.45363 | 21671 ft | 455 kts | 95° |
| 2026-04-26 03:16 | 25.30861 | 56.48863 | 21975 ft | 458 kts | 95° |
| 2026-04-26 03:16 | 25.30653 | 56.52384 | 22278 ft | 460 kts | 95° |
| 2026-04-26 03:17 | 25.30443 | 56.55922 | 22575 ft | 462 kts | 95° |
| 2026-04-26 03:17 | 25.30082 | 56.59439 | 22974 ft | 461 kts | 102° |
| 2026-04-26 03:17 | 25.29245 | 56.62860 | 23258 ft | 462 kts | 112° |
| 2026-04-26 03:17 | 25.28018 | 56.66149 | 23499 ft | 464 kts | 114° |
| 2026-04-26 03:18 | 25.26736 | 56.69436 | 23728 ft | 467 kts | 115° |
| 2026-04-26 03:18 | 25.25444 | 56.72732 | 23979 ft | 468 kts | 115° |
| 2026-04-26 03:18 | 25.24153 | 56.76047 | 24244 ft | 469 kts | 115° |
| 2026-04-26 03:18 | 25.22873 | 56.79364 | 24489 ft | 471 kts | 114° |
| 2026-04-26 03:19 | 25.21596 | 56.82699 | 24720 ft | 473 kts | 114° |
| 2026-04-26 03:19 | 25.20318 | 56.86054 | 24936 ft | 476 kts | 114° |
| 2026-04-26 03:19 | 25.19031 | 56.89438 | 25090 ft | 480 kts | 114° |
| 2026-04-26 03:19 | 25.17739 | 56.92838 | 25329 ft | 481 kts | 114° |
| 2026-04-26 03:20 | 25.16444 | 56.96244 | 25605 ft | 481 kts | 114° |
| 2026-04-26 03:20 | 25.15147 | 56.99654 | 25834 ft | 483 kts | 115° |
| 2026-04-26 03:20 | 25.13841 | 57.03080 | 26007 ft | 486 kts | 115° |
| 2026-04-26 03:20 | 25.12526 | 57.06527 | 26193 ft | 488 kts | 115° |
| 2026-04-26 03:21 | 25.11654 | 57.08810 | 26359 ft | 488 kts | 115° |
| 2026-04-26 03:21 | 25.10330 | 57.12273 | 26611 ft | 489 kts | 115° |
| 2026-04-26 03:21 | 25.09007 | 57.15734 | 26829 ft | 490 kts | 115° |
| 2026-04-26 03:21 | 25.07678 | 57.19205 | 27033 ft | 492 kts | 115° |
| 2026-04-26 03:22 | 25.06347 | 57.22678 | 27231 ft | 493 kts | 115° |
| 2026-04-26 03:22 | 25.05010 | 57.26167 | 27447 ft | 495 kts | 115° |
| 2026-04-26 03:22 | 25.03667 | 57.29665 | 27648 ft | 496 kts | 115° |
| 2026-04-26 03:22 | 25.02321 | 57.33171 | 27846 ft | 497 kts | 115° |
| 2026-04-26 03:23 | 25.00970 | 57.36685 | 28043 ft | 498 kts | 115° |
| 2026-04-26 03:23 | 24.99615 | 57.40208 | 28222 ft | 500 kts | 115° |
| 2026-04-26 03:23 | 24.98256 | 57.43737 | 28440 ft | 500 kts | 115° |
| 2026-04-26 03:23 | 24.96901 | 57.47256 | 28764 ft | 498 kts | 115° |
| 2026-04-26 03:24 | 24.95549 | 57.50763 | 29074 ft | 496 kts | 115° |
| 2026-04-26 03:24 | 24.94201 | 57.54256 | 29351 ft | 495 kts | 115° |
| 2026-04-26 03:24 | 24.92852 | 57.57749 | 29623 ft | 495 kts | 115° |
| 2026-04-26 03:24 | 24.91502 | 57.61240 | 29894 ft | 495 kts | 115° |
| 2026-04-26 03:25 | 24.90155 | 57.64722 | 30143 ft | 494 kts | 115° |
| 2026-04-26 03:25 | 24.88808 | 57.68199 | 30370 ft | 493 kts | 115° |
| 2026-04-26 03:25 | 24.87463 | 57.71671 | 30609 ft | 492 kts | 115° |
| 2026-04-26 03:25 | 24.86118 | 57.75142 | 30805 ft | 493 kts | 115° |
| 2026-04-26 03:26 | 24.84773 | 57.78608 | 31004 ft | 493 kts | 115° |
| 2026-04-26 03:26 | 24.83448 | 57.82099 | 31215 ft | 493 kts | 112° |
| 2026-04-26 03:26 | 24.82454 | 57.85712 | 31427 ft | 494 kts | 104° |
| 2026-04-26 03:26 | 24.81702 | 57.89390 | 31684 ft | 493 kts | 103° |
| 2026-04-26 03:27 | 24.80997 | 57.93083 | 31886 ft | 493 kts | 102° |
| 2026-04-26 03:27 | 24.80300 | 57.96765 | 32216 ft | 490 kts | 102° |
| 2026-04-26 03:27 | 24.79595 | 58.00428 | 32485 ft | 488 kts | 102° |
| 2026-04-26 03:27 | 24.78877 | 58.04071 | 32665 ft | 488 kts | 103° |
| 2026-04-26 03:28 | 24.78143 | 58.07722 | 32813 ft | 490 kts | 103° |
| 2026-04-26 03:28 | 24.77397 | 58.11385 | 32864 ft | 491 kts | 103° |
| 2026-04-26 03:28 | 24.75889 | 58.18716 | 32857 ft | 490 kts | 103° |
| 2026-04-26 03:29 | 24.74388 | 58.25995 | 32863 ft | 486 kts | 103° |
| 2026-04-26 03:29 | 24.72893 | 58.33235 | 32859 ft | 483 kts | 103° |
| 2026-04-26 03:30 | 24.71417 | 58.40374 | 32859 ft | 481 kts | 103° |
| 2026-04-26 03:30 | 24.69935 | 58.47529 | 32865 ft | 479 kts | 103° |
| 2026-04-26 03:31 | 24.68450 | 58.54672 | 32865 ft | 479 kts | 103° |
| 2026-04-26 03:31 | 24.66961 | 58.61820 | 32866 ft | 480 kts | 103° |
| 2026-04-26 03:32 | 24.65464 | 58.68987 | 32864 ft | 482 kts | 103° |
| 2026-04-26 03:32 | 24.63958 | 58.76179 | 32861 ft | 484 kts | 103° |
| 2026-04-26 03:33 | 24.62444 | 58.83396 | 32856 ft | 485 kts | 103° |
| 2026-04-26 03:33 | 24.60919 | 58.90641 | 32855 ft | 487 kts | 103° |
| 2026-04-26 03:34 | 24.59389 | 58.97898 | 32852 ft | 488 kts | 103° |
| 2026-04-26 03:34 | 24.57862 | 59.05118 | 32850 ft | 488 kts | 103° |
| 2026-04-26 03:35 | 24.56323 | 59.12378 | 32854 ft | 488 kts | 103° |
| 2026-04-26 03:35 | 24.54779 | 59.19648 | 32845 ft | 488 kts | 103° |
| 2026-04-26 03:36 | 24.53237 | 59.26896 | 32849 ft | 487 kts | 103° |
| 2026-04-26 03:36 | 24.51698 | 59.34139 | 32844 ft | 487 kts | 103° |
| 2026-04-26 03:37 | 24.50158 | 59.41374 | 32862 ft | 486 kts | 103° |
| 2026-04-26 03:37 | 24.48616 | 59.48601 | 32853 ft | 486 kts | 103° |
| 2026-04-26 03:38 | 24.47068 | 59.55832 | 32853 ft | 486 kts | 103° |
| 2026-04-26 03:38 | 24.45517 | 59.63064 | 32851 ft | 487 kts | 103° |
| 2026-04-26 03:39 | 24.43968 | 59.70264 | 32857 ft | 487 kts | 103° |
| 2026-04-26 03:39 | 24.42408 | 59.77501 | 32843 ft | 488 kts | 103° |
| 2026-04-26 03:40 | 24.40842 | 59.84749 | 32851 ft | 488 kts | 103° |
| 2026-04-26 03:40 | 24.39271 | 59.91998 | 32847 ft | 488 kts | 103° |
| 2026-04-26 03:41 | 24.37698 | 59.99245 | 32854 ft | 488 kts | 103° |
| 2026-04-26 03:41 | 24.36121 | 60.06494 | 32851 ft | 489 kts | 103° |
| 2026-04-26 03:42 | 24.34537 | 60.13743 | 32850 ft | 489 kts | 103° |
| 2026-04-26 03:42 | 24.32943 | 60.20988 | 32864 ft | 488 kts | 103° |
| 2026-04-26 03:43 | 24.31347 | 60.28225 | 32847 ft | 488 kts | 103° |
| 2026-04-26 03:43 | 24.29752 | 60.35448 | 32846 ft | 487 kts | 103° |
| 2026-04-26 03:44 | 24.28158 | 60.42653 | 32860 ft | 486 kts | 103° |
| 2026-04-26 03:44 | 24.26564 | 60.49839 | 32858 ft | 485 kts | 103° |
| 2026-04-26 03:45 | 24.24970 | 60.57010 | 32845 ft | 484 kts | 103° |
| 2026-04-26 03:45 | 24.23378 | 60.64155 | 32846 ft | 482 kts | 103° |
| 2026-04-26 03:46 | 24.21788 | 60.71278 | 32860 ft | 480 kts | 103° |
| 2026-04-26 03:47 | 24.19402 | 60.81929 | 32864 ft | 479 kts | 103° |
| 2026-04-26 03:47 | 24.17812 | 60.89018 | 32855 ft | 479 kts | 103° |
| 2026-04-26 03:48 | 24.16220 | 60.96099 | 32858 ft | 479 kts | 103° |
| 2026-04-26 03:48 | 24.14634 | 61.03141 | 32864 ft | 480 kts | 103° |
| 2026-04-26 03:49 | 24.13033 | 61.10229 | 32864 ft | 480 kts | 103° |
| 2026-04-26 03:49 | 24.11427 | 61.17329 | 32858 ft | 480 kts | 103° |
| 2026-04-26 03:50 | 24.09818 | 61.24423 | 32863 ft | 480 kts | 103° |
| 2026-04-26 03:50 | 24.08205 | 61.31523 | 32868 ft | 480 kts | 103° |
| 2026-04-26 03:51 | 24.07304 | 61.38741 | 32877 ft | 479 kts | 92° |
| 2026-04-26 03:51 | 24.06948 | 61.46025 | 32876 ft | 479 kts | 92° |
| 2026-04-26 03:52 | 24.06594 | 61.53251 | 32855 ft | 479 kts | 92° |
| 2026-04-26 03:52 | 24.06185 | 61.60521 | 32865 ft | 479 kts | 93° |
| 2026-04-26 03:53 | 24.05747 | 61.67787 | 32860 ft | 478 kts | 93° |
| 2026-04-26 03:53 | 24.05300 | 61.75041 | 32861 ft | 478 kts | 93° |
| 2026-04-26 03:54 | 24.04851 | 61.82305 | 32857 ft | 478 kts | 92° |
| 2026-04-26 03:54 | 24.04401 | 61.89563 | 32869 ft | 477 kts | 92° |
| 2026-04-26 03:55 | 24.03949 | 61.96805 | 32857 ft | 477 kts | 92° |
| 2026-04-26 03:55 | 24.03493 | 62.04044 | 32871 ft | 477 kts | 92° |
| 2026-04-26 03:56 | 24.03035 | 62.11278 | 32865 ft | 477 kts | 92° |
| 2026-04-26 03:56 | 24.02573 | 62.18505 | 32862 ft | 477 kts | 92° |
| 2026-04-26 03:57 | 24.02107 | 62.25745 | 32864 ft | 477 kts | 92° |
| 2026-04-26 03:57 | 24.01639 | 62.32970 | 32864 ft | 477 kts | 92° |
| 2026-04-26 03:58 | 24.01167 | 62.40205 | 32868 ft | 477 kts | 92° |
| 2026-04-26 03:58 | 24.00691 | 62.47435 | 32859 ft | 477 kts | 92° |
| 2026-04-26 03:59 | 24.00212 | 62.54668 | 32862 ft | 477 kts | 93° |
| 2026-04-26 03:59 | 23.99729 | 62.61904 | 32862 ft | 477 kts | 93° |
| 2026-04-26 04:00 | 23.99242 | 62.69147 | 32876 ft | 477 kts | 93° |
| 2026-04-26 04:00 | 23.98756 | 62.76334 | 32881 ft | 477 kts | 93° |
| 2026-04-26 04:01 | 23.98263 | 62.83565 | 32871 ft | 477 kts | 93° |
| 2026-04-26 04:01 | 23.97767 | 62.90789 | 32875 ft | 476 kts | 92° |
| 2026-04-26 04:02 | 23.97268 | 62.98011 | 32865 ft | 476 kts | 92° |
| 2026-04-26 04:02 | 23.96767 | 63.05224 | 32876 ft | 475 kts | 93° |
| 2026-04-26 04:03 | 23.96262 | 63.12426 | 32881 ft | 474 kts | 93° |
| 2026-04-26 04:03 | 23.95756 | 63.19614 | 32873 ft | 474 kts | 93° |
| 2026-04-26 04:04 | 23.95246 | 63.26787 | 32873 ft | 473 kts | 93° |
| 2026-04-26 04:04 | 23.94734 | 63.33958 | 32873 ft | 473 kts | 93° |
| 2026-04-26 04:05 | 23.94219 | 63.41127 | 32880 ft | 473 kts | 93° |
| 2026-04-26 04:05 | 23.93701 | 63.48283 | 32877 ft | 473 kts | 93° |
| 2026-04-26 04:06 | 23.93266 | 63.54248 | 32886 ft | 473 kts | 93° |
| 2026-04-26 04:06 | 23.92741 | 63.61417 | 32879 ft | 473 kts | 93° |
| 2026-04-26 04:07 | 23.92212 | 63.68595 | 32877 ft | 474 kts | 93° |
| 2026-04-26 04:07 | 23.91680 | 63.75774 | 32885 ft | 474 kts | 93° |
| 2026-04-26 04:08 | 23.91144 | 63.82955 | 32881 ft | 475 kts | 93° |
| 2026-04-26 04:08 | 23.90603 | 63.90153 | 32881 ft | 475 kts | 93° |
| 2026-04-26 04:09 | 23.90059 | 63.97340 | 32885 ft | 474 kts | 93° |
| 2026-04-26 04:09 | 23.89514 | 64.04506 | 32878 ft | 473 kts | 93° |
| 2026-04-26 04:10 | 23.88967 | 64.11657 | 32878 ft | 471 kts | 93° |
| 2026-04-26 04:10 | 23.88418 | 64.18783 | 32881 ft | 470 kts | 93° |
| 2026-04-26 04:11 | 23.87871 | 64.25838 | 32889 ft | 468 kts | 93° |
| 2026-04-26 04:11 | 23.87317 | 64.32948 | 32876 ft | 466 kts | 93° |
| 2026-04-26 04:12 | 23.86768 | 64.39953 | 32879 ft | 465 kts | 94° |
| 2026-04-26 04:12 | 23.86215 | 64.46976 | 32883 ft | 464 kts | 94° |
| 2026-04-26 04:13 | 23.85658 | 64.53996 | 32886 ft | 464 kts | 94° |
| 2026-04-26 04:13 | 23.85098 | 64.61019 | 32884 ft | 464 kts | 94° |
| 2026-04-26 04:14 | 23.84533 | 64.68061 | 32887 ft | 465 kts | 94° |
| 2026-04-26 04:14 | 23.83965 | 64.75102 | 32877 ft | 466 kts | 94° |
| 2026-04-26 04:15 | 23.83392 | 64.82169 | 32884 ft | 467 kts | 94° |
| 2026-04-26 04:15 | 23.83183 | 64.89265 | 32884 ft | 467 kts | 88° |
| 2026-04-26 04:16 | 23.83296 | 64.96361 | 32878 ft | 468 kts | 87° |
| 2026-04-26 04:16 | 23.83407 | 65.03479 | 32888 ft | 469 kts | 88° |
| 2026-04-26 04:17 | 23.83469 | 65.10550 | 32880 ft | 469 kts | 88° |
| 2026-04-26 04:17 | 23.83507 | 65.17682 | 32878 ft | 469 kts | 88° |
| 2026-04-26 04:18 | 23.83536 | 65.24809 | 32883 ft | 469 kts | 88° |
| 2026-04-26 04:18 | 23.83563 | 65.31930 | 32876 ft | 468 kts | 88° |
| 2026-04-26 04:19 | 23.83588 | 65.39031 | 32874 ft | 467 kts | 88° |
| 2026-04-26 04:19 | 23.83611 | 65.46121 | 32874 ft | 466 kts | 88° |
| 2026-04-26 04:20 | 23.83630 | 65.53204 | 32879 ft | 465 kts | 88° |
| 2026-04-26 04:20 | 23.83646 | 65.60257 | 32874 ft | 464 kts | 88° |
| 2026-04-26 04:21 | 23.83659 | 65.67302 | 32880 ft | 464 kts | 89° |
| 2026-04-26 04:21 | 23.83668 | 65.74340 | 32890 ft | 463 kts | 89° |
| 2026-04-26 04:22 | 23.83674 | 65.81375 | 32873 ft | 463 kts | 89° |
| 2026-04-26 04:22 | 23.83678 | 65.88406 | 32879 ft | 463 kts | 89° |
| 2026-04-26 04:23 | 23.83677 | 65.95430 | 32880 ft | 463 kts | 89° |
| 2026-04-26 04:23 | 23.83674 | 66.02473 | 32876 ft | 463 kts | 89° |
| 2026-04-26 04:24 | 23.83668 | 66.09462 | 32874 ft | 464 kts | 89° |
| 2026-04-26 04:24 | 23.83658 | 66.16506 | 32882 ft | 464 kts | 89° |
| 2026-04-26 04:25 | 23.83645 | 66.23546 | 32874 ft | 464 kts | 89° |
| 2026-04-26 04:25 | 23.83629 | 66.30595 | 32887 ft | 464 kts | 89° |
| 2026-04-26 04:26 | 23.83610 | 66.37644 | 32883 ft | 464 kts | 89° |
| 2026-04-26 04:26 | 23.83587 | 66.44697 | 32870 ft | 464 kts | 89° |
| 2026-04-26 04:27 | 23.83562 | 66.51741 | 32878 ft | 464 kts | 89° |
| 2026-04-26 04:27 | 23.83533 | 66.58792 | 32878 ft | 464 kts | 89° |
| 2026-04-26 04:28 | 23.83501 | 66.65842 | 32873 ft | 464 kts | 89° |
| 2026-04-26 04:28 | 23.83465 | 66.72889 | 32871 ft | 464 kts | 89° |
| 2026-04-26 04:29 | 23.83426 | 66.79940 | 32870 ft | 464 kts | 89° |
| 2026-04-26 04:29 | 23.83385 | 66.86983 | 32872 ft | 463 kts | 89° |
| 2026-04-26 04:30 | 23.83341 | 66.94012 | 32895 ft | 462 kts | 89° |
| 2026-04-26 04:30 | 23.83444 | 67.01027 | 33356 ft | 458 kts | 84° |
| 2026-04-26 04:30 | 23.83648 | 67.04499 | 33546 ft | 459 kts | 85° |
| 2026-04-26 04:31 | 23.83824 | 67.07996 | 33495 ft | 463 kts | 85° |
| 2026-04-26 04:31 | 23.84000 | 67.11505 | 33610 ft | 465 kts | 85° |
| 2026-04-26 04:31 | 23.84176 | 67.15045 | 33772 ft | 465 kts | 85° |
| 2026-04-26 04:31 | 23.84351 | 67.18570 | 33991 ft | 464 kts | 85° |
| 2026-04-26 04:32 | 23.84524 | 67.22066 | 34252 ft | 461 kts | 85° |
| 2026-04-26 04:32 | 23.84698 | 67.25560 | 34466 ft | 460 kts | 86° |
| 2026-04-26 04:32 | 23.84870 | 67.29048 | 34640 ft | 460 kts | 86° |
| 2026-04-26 04:32 | 23.85042 | 67.32537 | 34756 ft | 460 kts | 85° |
| 2026-04-26 04:33 | 23.85214 | 67.36028 | 34841 ft | 461 kts | 86° |
| 2026-04-26 04:33 | 23.85555 | 67.43001 | 34864 ft | 464 kts | 86° |
| 2026-04-26 04:34 | 23.85895 | 67.50036 | 34862 ft | 464 kts | 86° |
| 2026-04-26 04:34 | 23.86231 | 67.57073 | 34867 ft | 463 kts | 85° |
| 2026-04-26 04:35 | 23.86564 | 67.64099 | 34862 ft | 464 kts | 85° |
| 2026-04-26 04:35 | 23.86894 | 67.71130 | 34859 ft | 463 kts | 86° |
| 2026-04-26 04:36 | 23.87221 | 67.78157 | 34861 ft | 463 kts | 86° |
| 2026-04-26 04:36 | 23.87543 | 67.85176 | 34856 ft | 463 kts | 86° |
| 2026-04-26 04:37 | 23.87863 | 67.92201 | 34855 ft | 462 kts | 86° |
| 2026-04-26 04:37 | 23.88180 | 67.99207 | 34859 ft | 462 kts | 86° |
| 2026-04-26 04:38 | 23.88494 | 68.06216 | 34857 ft | 462 kts | 86° |
| 2026-04-26 04:38 | 23.88805 | 68.13220 | 34859 ft | 461 kts | 86° |
| 2026-04-26 04:39 | 23.89111 | 68.20217 | 34849 ft | 461 kts | 86° |
| 2026-04-26 04:39 | 23.89412 | 68.27171 | 34856 ft | 461 kts | 86° |
| 2026-04-26 04:40 | 23.89712 | 68.34175 | 34860 ft | 462 kts | 85° |
| 2026-04-26 04:40 | 23.90010 | 68.41228 | 34867 ft | 462 kts | 85° |
| 2026-04-26 04:41 | 23.90302 | 68.48210 | 34861 ft | 463 kts | 85° |
| 2026-04-26 04:41 | 23.90595 | 68.55252 | 34858 ft | 464 kts | 86° |
| 2026-04-26 04:42 | 23.90887 | 68.62309 | 34869 ft | 465 kts | 85° |
| 2026-04-26 04:42 | 23.91178 | 68.69417 | 34868 ft | 465 kts | 86° |
| 2026-04-26 04:43 | 23.91457 | 68.76432 | 34860 ft | 466 kts | 86° |
| 2026-04-26 04:43 | 23.91735 | 68.83508 | 34857 ft | 466 kts | 88° |
| 2026-04-26 04:44 | 23.92013 | 68.90573 | 34857 ft | 466 kts | 86° |
| 2026-04-26 04:44 | 23.92286 | 68.97646 | 34853 ft | 465 kts | 86° |
| 2026-04-26 04:45 | 23.92557 | 69.04696 | 34855 ft | 464 kts | 86° |
| 2026-04-26 04:45 | 23.92824 | 69.11743 | 34856 ft | 464 kts | 86° |
| 2026-04-26 04:46 | 23.93087 | 69.18786 | 34853 ft | 463 kts | 85° |
| 2026-04-26 04:46 | 23.93345 | 69.25813 | 34865 ft | 462 kts | 85° |
| 2026-04-26 04:47 | 23.93602 | 69.32826 | 34859 ft | 462 kts | 85° |
| 2026-04-26 04:47 | 23.93853 | 69.39853 | 34856 ft | 462 kts | 86° |
| 2026-04-26 04:48 | 23.94225 | 69.50379 | 34858 ft | 462 kts | 88° |
| 2026-04-26 04:48 | 23.94470 | 69.57367 | 34861 ft | 463 kts | 87° |
| 2026-04-26 04:49 | 23.94713 | 69.64447 | 34858 ft | 463 kts | 86° |
| 2026-04-26 04:49 | 23.94954 | 69.71493 | 34854 ft | 464 kts | 87° |
| 2026-04-26 04:50 | 23.95190 | 69.78495 | 34856 ft | 465 kts | 86° |
| 2026-04-26 04:50 | 23.95420 | 69.85570 | 34860 ft | 466 kts | 86° |
| 2026-04-26 04:51 | 23.95650 | 69.92652 | 34856 ft | 467 kts | 87° |
| 2026-04-26 04:51 | 23.95880 | 69.99756 | 34860 ft | 467 kts | 87° |
| 2026-04-26 04:52 | 23.96068 | 70.05655 | 34855 ft | 467 kts | 87° |
| 2026-04-26 04:52 | 23.96292 | 70.12769 | 34886 ft | 471 kts | 87° |
| 2026-04-26 04:53 | 23.96402 | 70.16344 | 35005 ft | 472 kts | 88° |
| 2026-04-26 04:53 | 23.96511 | 70.19933 | 35106 ft | 473 kts | 87° |
| 2026-04-26 04:53 | 23.96729 | 70.27141 | 35351 ft | 474 kts | 88° |
| 2026-04-26 04:54 | 23.96945 | 70.34358 | 35610 ft | 475 kts | 88° |
| 2026-04-26 04:54 | 23.97051 | 70.37966 | 35731 ft | 475 kts | 88° |
| 2026-04-26 04:54 | 23.97157 | 70.41583 | 35829 ft | 476 kts | 88° |
| 2026-04-26 04:55 | 23.97262 | 70.45200 | 35971 ft | 476 kts | 88° |
| 2026-04-26 04:55 | 23.97366 | 70.48825 | 36045 ft | 478 kts | 88° |
| 2026-04-26 04:55 | 23.97470 | 70.52456 | 36163 ft | 478 kts | 88° |
| 2026-04-26 04:55 | 23.97573 | 70.56087 | 36302 ft | 478 kts | 88° |
| 2026-04-26 04:56 | 23.97675 | 70.59710 | 36496 ft | 476 kts | 88° |
| 2026-04-26 04:56 | 23.97775 | 70.63319 | 36708 ft | 474 kts | 88° |
| 2026-04-26 04:56 | 23.97875 | 70.66911 | 36855 ft | 472 kts | 88° |
| 2026-04-26 04:56 | 23.97973 | 70.70508 | 36842 ft | 474 kts | 88° |
| 2026-04-26 04:57 | 23.98168 | 70.77691 | 36855 ft | 471 kts | 88° |
| 2026-04-26 04:57 | 23.98358 | 70.84847 | 36856 ft | 469 kts | 88° |
| 2026-04-26 04:58 | 23.98543 | 70.91919 | 36858 ft | 468 kts | 88° |
| 2026-04-26 04:58 | 23.98725 | 70.99019 | 36862 ft | 467 kts | 88° |
| 2026-04-26 04:59 | 23.98904 | 71.06107 | 36860 ft | 466 kts | 88° |
| 2026-04-26 04:59 | 23.99079 | 71.13196 | 36861 ft | 466 kts | 88° |
| 2026-04-26 05:00 | 23.99251 | 71.20293 | 36860 ft | 467 kts | 88° |
| 2026-04-26 05:00 | 23.99421 | 71.27405 | 36857 ft | 468 kts | 88° |
| 2026-04-26 05:01 | 23.99588 | 71.34535 | 36856 ft | 470 kts | 88° |
| 2026-04-26 05:01 | 23.99751 | 71.41690 | 36855 ft | 471 kts | 88° |
| 2026-04-26 05:02 | 23.99912 | 71.48858 | 36856 ft | 472 kts | 88° |
| 2026-04-26 05:02 | 24.00070 | 71.56041 | 36855 ft | 473 kts | 88° |
| 2026-04-26 05:03 | 24.00225 | 71.63239 | 36847 ft | 474 kts | 88° |
| 2026-04-26 05:03 | 24.00376 | 71.70442 | 36850 ft | 474 kts | 88° |
| 2026-04-26 05:04 | 24.00525 | 71.77657 | 36848 ft | 474 kts | 88° |
| 2026-04-26 05:04 | 24.00670 | 71.84871 | 36851 ft | 474 kts | 88° |
| 2026-04-26 05:05 | 24.00811 | 71.92084 | 36853 ft | 474 kts | 88° |
| 2026-04-26 05:05 | 24.00948 | 71.99245 | 36850 ft | 474 kts | 88° |
| 2026-04-26 05:06 | 24.01083 | 72.06446 | 36854 ft | 473 kts | 88° |
| 2026-04-26 05:06 | 24.01214 | 72.13638 | 36856 ft | 473 kts | 88° |
| 2026-04-26 05:07 | 24.01342 | 72.20822 | 36855 ft | 472 kts | 88° |
| 2026-04-26 05:07 | 24.01466 | 72.27998 | 36865 ft | 472 kts | 88° |
| 2026-04-26 05:08 | 24.01586 | 72.35161 | 36866 ft | 471 kts | 88° |
| 2026-04-26 05:08 | 24.01704 | 72.42335 | 36869 ft | 471 kts | 88° |
| 2026-04-26 05:09 | 24.01818 | 72.49499 | 36867 ft | 471 kts | 88° |
| 2026-04-26 05:09 | 24.01928 | 72.56661 | 36874 ft | 471 kts | 88° |
| 2026-04-26 05:10 | 24.02035 | 72.63826 | 36878 ft | 471 kts | 89° |
| 2026-04-26 05:10 | 24.02139 | 72.70997 | 36869 ft | 472 kts | 89° |
| 2026-04-26 05:11 | 24.02240 | 72.78181 | 36864 ft | 472 kts | 89° |
| 2026-04-26 05:11 | 24.02338 | 72.85361 | 36876 ft | 472 kts | 89° |
| 2026-04-26 05:12 | 24.02432 | 72.92548 | 36871 ft | 473 kts | 89° |
| 2026-04-26 05:12 | 24.02523 | 72.99739 | 36874 ft | 473 kts | 89° |
| 2026-04-26 05:13 | 24.02611 | 73.06939 | 36881 ft | 474 kts | 89° |
| 2026-04-26 05:13 | 24.02695 | 73.14138 | 36886 ft | 474 kts | 89° |
| 2026-04-26 05:14 | 24.02776 | 73.21352 | 36890 ft | 474 kts | 89° |
| 2026-04-26 05:14 | 24.02854 | 73.28580 | 36887 ft | 475 kts | 89° |
| 2026-04-26 05:15 | 24.02928 | 73.35806 | 36885 ft | 475 kts | 89° |
| 2026-04-26 05:15 | 24.02999 | 73.43034 | 36897 ft | 475 kts | 89° |
| 2026-04-26 05:16 | 24.03067 | 73.50265 | 36891 ft | 475 kts | 89° |
| 2026-04-26 05:16 | 24.03131 | 73.57490 | 36891 ft | 475 kts | 89° |
| 2026-04-26 05:17 | 24.03192 | 73.64729 | 36894 ft | 475 kts | 89° |
| 2026-04-26 05:17 | 24.03250 | 73.71962 | 36892 ft | 476 kts | 89° |
| 2026-04-26 05:18 | 24.03304 | 73.79190 | 36895 ft | 476 kts | 89° |
| 2026-04-26 05:18 | 24.03354 | 73.86389 | 36888 ft | 476 kts | 89° |
| 2026-04-26 05:19 | 24.03402 | 73.93624 | 36897 ft | 476 kts | 89° |
| 2026-04-26 05:19 | 24.03446 | 74.00869 | 36896 ft | 476 kts | 89° |
| 2026-04-26 05:20 | 24.03486 | 74.08115 | 36900 ft | 476 kts | 89° |
| 2026-04-26 05:20 | 24.03523 | 74.15371 | 36902 ft | 476 kts | 89° |
| 2026-04-26 05:21 | 24.03557 | 74.22620 | 36913 ft | 477 kts | 89° |
| 2026-04-26 05:21 | 24.03588 | 74.29871 | 36916 ft | 477 kts | 89° |
| 2026-04-26 05:22 | 24.03615 | 74.37124 | 36915 ft | 477 kts | 90° |
| 2026-04-26 05:22 | 24.03638 | 74.44376 | 36915 ft | 477 kts | 90° |
| 2026-04-26 05:23 | 24.03658 | 74.51629 | 36923 ft | 477 kts | 90° |
| 2026-04-26 05:23 | 24.03675 | 74.58881 | 36922 ft | 477 kts | 90° |
| 2026-04-26 05:24 | 24.03689 | 74.66084 | 36927 ft | 477 kts | 90° |
| 2026-04-26 05:24 | 24.03622 | 74.73334 | 36914 ft | 476 kts | 96° |
| 2026-04-26 05:25 | 24.02174 | 74.80368 | 36936 ft | 474 kts | 108° |
| 2026-04-26 05:25 | 24.00167 | 74.87244 | 36926 ft | 474 kts | 108° |
| 2026-04-26 05:26 | 23.98175 | 74.94124 | 36925 ft | 475 kts | 108° |
| 2026-04-26 05:26 | 23.96219 | 75.01019 | 36925 ft | 475 kts | 108° |
| 2026-04-26 05:27 | 23.94275 | 75.07917 | 36927 ft | 475 kts | 108° |
| 2026-04-26 05:27 | 23.92331 | 75.14811 | 36918 ft | 475 kts | 108° |
| 2026-04-26 05:28 | 23.90382 | 75.21703 | 36924 ft | 474 kts | 108° |
| 2026-04-26 05:28 | 23.88430 | 75.28589 | 36922 ft | 474 kts | 108° |
| 2026-04-26 05:29 | 23.86474 | 75.35472 | 36919 ft | 474 kts | 108° |
| 2026-04-26 05:29 | 23.84517 | 75.42350 | 36921 ft | 474 kts | 108° |
| 2026-04-26 05:30 | 23.82570 | 75.49180 | 36923 ft | 474 kts | 108° |
| 2026-04-26 05:30 | 23.80607 | 75.56053 | 36926 ft | 474 kts | 108° |
| 2026-04-26 05:31 | 23.78640 | 75.62925 | 36922 ft | 474 kts | 108° |
| 2026-04-26 05:31 | 23.76671 | 75.69794 | 36921 ft | 474 kts | 108° |
| 2026-04-26 05:32 | 23.74699 | 75.76660 | 36922 ft | 474 kts | 108° |
| 2026-04-26 05:32 | 23.72724 | 75.83524 | 36908 ft | 474 kts | 108° |
| 2026-04-26 05:33 | 23.70746 | 75.90388 | 36918 ft | 474 kts | 108° |
| 2026-04-26 05:33 | 23.68763 | 75.97257 | 36908 ft | 474 kts | 108° |
| 2026-04-26 05:34 | 23.66786 | 76.04072 | 36907 ft | 474 kts | 108° |
| 2026-04-26 05:34 | 23.64781 | 76.10926 | 36903 ft | 474 kts | 108° |
| 2026-04-26 05:35 | 23.62768 | 76.17791 | 36901 ft | 475 kts | 109° |
| 2026-04-26 05:35 | 23.60755 | 76.24653 | 36899 ft | 475 kts | 109° |
| 2026-04-26 05:36 | 23.58741 | 76.31509 | 36892 ft | 476 kts | 109° |
| 2026-04-26 05:36 | 23.56720 | 76.38377 | 36888 ft | 476 kts | 109° |
| 2026-04-26 05:37 | 23.54695 | 76.45249 | 36887 ft | 476 kts | 109° |
| 2026-04-26 05:37 | 23.52662 | 76.52134 | 36881 ft | 477 kts | 109° |
| 2026-04-26 05:38 | 23.50971 | 76.57849 | 36880 ft | 477 kts | 109° |
| 2026-04-26 05:38 | 23.48929 | 76.64742 | 36871 ft | 478 kts | 109° |
| 2026-04-26 05:39 | 23.46886 | 76.71626 | 36873 ft | 478 kts | 109° |
| 2026-04-26 05:39 | 23.44832 | 76.78532 | 36875 ft | 479 kts | 109° |
| 2026-04-26 05:40 | 23.42775 | 76.85436 | 36872 ft | 480 kts | 109° |
| 2026-04-26 05:40 | 23.40708 | 76.92364 | 36868 ft | 482 kts | 110° |
| 2026-04-26 05:41 | 23.38630 | 76.99315 | 36869 ft | 483 kts | 110° |
| 2026-04-26 05:41 | 23.36547 | 77.06272 | 36883 ft | 484 kts | 110° |
| 2026-04-26 05:42 | 23.34457 | 77.13239 | 36892 ft | 485 kts | 110° |
| 2026-04-26 05:42 | 23.32376 | 77.20167 | 36905 ft | 485 kts | 110° |
| 2026-04-26 05:43 | 23.30276 | 77.27145 | 36913 ft | 486 kts | 110° |
| 2026-04-26 05:43 | 23.28170 | 77.34126 | 36914 ft | 486 kts | 110° |
| 2026-04-26 05:44 | 23.25923 | 77.41046 | 36915 ft | 485 kts | 112° |
| 2026-04-26 05:44 | 23.23581 | 77.47925 | 36873 ft | 485 kts | 113° |
| 2026-04-26 05:45 | 23.21244 | 77.54811 | 36876 ft | 486 kts | 113° |
| 2026-04-26 05:45 | 23.18919 | 77.61716 | 36841 ft | 488 kts | 113° |
| 2026-04-26 05:46 | 23.16583 | 77.68671 | 36843 ft | 491 kts | 113° |
| 2026-04-26 05:46 | 23.14227 | 77.75677 | 36840 ft | 495 kts | 113° |
| 2026-04-26 05:47 | 23.11855 | 77.82718 | 36835 ft | 498 kts | 113° |
| 2026-04-26 05:47 | 23.09468 | 77.89789 | 36835 ft | 500 kts | 113° |
| 2026-04-26 05:48 | 23.07065 | 77.96895 | 36820 ft | 502 kts | 113° |
| 2026-04-26 05:48 | 23.04653 | 78.04018 | 36818 ft | 503 kts | 113° |
| 2026-04-26 05:49 | 23.01027 | 78.14703 | 36826 ft | 502 kts | 113° |
| 2026-04-26 05:50 | 22.98610 | 78.21808 | 36814 ft | 501 kts | 114° |
| 2026-04-26 05:50 | 22.96197 | 78.28896 | 36828 ft | 500 kts | 114° |
| 2026-04-26 05:51 | 22.93780 | 78.35974 | 36828 ft | 500 kts | 114° |
| 2026-04-26 05:51 | 22.91358 | 78.43057 | 36839 ft | 501 kts | 114° |
| 2026-04-26 05:52 | 22.88928 | 78.50153 | 36835 ft | 502 kts | 114° |
| 2026-04-26 05:52 | 22.86488 | 78.57265 | 36837 ft | 504 kts | 114° |
| 2026-04-26 05:53 | 22.84038 | 78.64396 | 36836 ft | 505 kts | 114° |
| 2026-04-26 05:53 | 22.81578 | 78.71547 | 36837 ft | 507 kts | 114° |
| 2026-04-26 05:54 | 22.79106 | 78.78717 | 36846 ft | 508 kts | 114° |
| 2026-04-26 05:54 | 22.76625 | 78.85904 | 36848 ft | 510 kts | 114° |
| 2026-04-26 05:55 | 22.74150 | 78.93061 | 36847 ft | 511 kts | 114° |
| 2026-04-26 05:55 | 22.71651 | 79.00276 | 36830 ft | 512 kts | 115° |
| 2026-04-26 05:56 | 22.69145 | 79.07499 | 36856 ft | 513 kts | 115° |
| 2026-04-26 05:56 | 22.66627 | 79.14743 | 36861 ft | 514 kts | 115° |
| 2026-04-26 05:57 | 22.64104 | 79.21992 | 36862 ft | 515 kts | 115° |
| 2026-04-26 05:57 | 22.61572 | 79.29253 | 36862 ft | 516 kts | 115° |
| 2026-04-26 05:58 | 22.59036 | 79.36519 | 36862 ft | 516 kts | 115° |
| 2026-04-26 05:58 | 22.56495 | 79.43785 | 36861 ft | 516 kts | 115° |
| 2026-04-26 05:59 | 22.53968 | 79.51061 | 36865 ft | 517 kts | 115° |
| 2026-04-26 05:59 | 22.51450 | 79.58341 | 36865 ft | 517 kts | 115° |
| 2026-04-26 06:00 | 22.48928 | 79.65620 | 36866 ft | 517 kts | 115° |
| 2026-04-26 06:00 | 22.46400 | 79.72893 | 36870 ft | 517 kts | 115° |
| 2026-04-26 06:01 | 22.43868 | 79.80164 | 36854 ft | 517 kts | 115° |
| 2026-04-26 06:01 | 22.41331 | 79.87437 | 36864 ft | 517 kts | 115° |
| 2026-04-26 06:02 | 22.38786 | 79.94720 | 36868 ft | 519 kts | 115° |
| 2026-04-26 06:02 | 22.36249 | 80.01971 | 36863 ft | 520 kts | 115° |
| 2026-04-26 06:03 | 22.33685 | 80.09286 | 36863 ft | 521 kts | 115° |
| 2026-04-26 06:03 | 22.31112 | 80.16615 | 36865 ft | 522 kts | 115° |
| 2026-04-26 06:04 | 22.28532 | 80.23954 | 36861 ft | 524 kts | 115° |
| 2026-04-26 06:04 | 22.25937 | 80.31321 | 36859 ft | 525 kts | 115° |
| 2026-04-26 06:05 | 22.23341 | 80.38684 | 36858 ft | 525 kts | 115° |
| 2026-04-26 06:05 | 22.20740 | 80.46040 | 36851 ft | 525 kts | 116° |
| 2026-04-26 06:06 | 22.18126 | 80.53404 | 36856 ft | 525 kts | 116° |
| 2026-04-26 06:06 | 22.15516 | 80.60749 | 36846 ft | 524 kts | 116° |
| 2026-04-26 06:07 | 22.12909 | 80.68078 | 36852 ft | 523 kts | 116° |
| 2026-04-26 06:07 | 22.10305 | 80.75387 | 36858 ft | 522 kts | 116° |
| 2026-04-26 06:08 | 22.07698 | 80.82692 | 36848 ft | 522 kts | 116° |
| 2026-04-26 06:08 | 22.05090 | 80.89987 | 36849 ft | 521 kts | 116° |
| 2026-04-26 06:09 | 22.02480 | 80.97276 | 36838 ft | 521 kts | 116° |
| 2026-04-26 06:09 | 21.99864 | 81.04569 | 36833 ft | 522 kts | 116° |
| 2026-04-26 06:10 | 21.97263 | 81.11815 | 36825 ft | 522 kts | 116° |
| 2026-04-26 06:10 | 21.94639 | 81.19108 | 36829 ft | 522 kts | 116° |
| 2026-04-26 06:11 | 21.92008 | 81.26408 | 36821 ft | 523 kts | 116° |
| 2026-04-26 06:11 | 21.89369 | 81.33719 | 36817 ft | 524 kts | 116° |
| 2026-04-26 06:12 | 21.86720 | 81.41048 | 36820 ft | 525 kts | 116° |
| 2026-04-26 06:12 | 21.84069 | 81.48372 | 36820 ft | 526 kts | 116° |
| 2026-04-26 06:13 | 21.81406 | 81.55718 | 36819 ft | 526 kts | 116° |
| 2026-04-26 06:13 | 21.78741 | 81.63059 | 36823 ft | 527 kts | 116° |
| 2026-04-26 06:14 | 21.76406 | 81.70563 | 36834 ft | 530 kts | 111° |
| 2026-04-26 06:14 | 21.74312 | 81.78181 | 36828 ft | 531 kts | 110° |
| 2026-04-26 06:15 | 21.72180 | 81.85792 | 36827 ft | 531 kts | 111° |
| 2026-04-26 06:15 | 21.70002 | 81.93384 | 36832 ft | 531 kts | 111° |
| 2026-04-26 06:16 | 21.67830 | 82.00931 | 36831 ft | 531 kts | 111° |
| 2026-04-26 06:16 | 21.65630 | 82.08514 | 36827 ft | 531 kts | 111° |
| 2026-04-26 06:17 | 21.63418 | 82.16091 | 36825 ft | 531 kts | 111° |
| 2026-04-26 06:17 | 21.61210 | 82.23653 | 36803 ft | 530 kts | 111° |
| 2026-04-26 06:18 | 21.59002 | 82.31207 | 36813 ft | 529 kts | 111° |
| 2026-04-26 06:18 | 21.56794 | 82.38749 | 36818 ft | 529 kts | 111° |
| 2026-04-26 06:19 | 21.54584 | 82.46284 | 36817 ft | 529 kts | 111° |
| 2026-04-26 06:19 | 21.52368 | 82.53826 | 36814 ft | 529 kts | 111° |
| 2026-04-26 06:20 | 21.50155 | 82.61347 | 36800 ft | 529 kts | 111° |
| 2026-04-26 06:20 | 21.47899 | 82.68853 | 36801 ft | 527 kts | 114° |
| 2026-04-26 06:21 | 21.45192 | 82.76138 | 36805 ft | 524 kts | 118° |
| 2026-04-26 06:21 | 21.42312 | 82.83329 | 36797 ft | 524 kts | 118° |
| 2026-04-26 06:22 | 21.39465 | 82.90551 | 36790 ft | 525 kts | 117° |
| 2026-04-26 06:22 | 21.37138 | 82.96570 | 36792 ft | 525 kts | 117° |
| 2026-04-26 06:23 | 21.34351 | 83.03816 | 36780 ft | 525 kts | 117° |
| 2026-04-26 06:23 | 21.31559 | 83.11063 | 36780 ft | 525 kts | 117° |
| 2026-04-26 06:24 | 21.28770 | 83.18277 | 36780 ft | 524 kts | 117° |
| 2026-04-26 06:24 | 21.25978 | 83.25485 | 36776 ft | 523 kts | 117° |
| 2026-04-26 06:25 | 21.23183 | 83.32691 | 36776 ft | 523 kts | 117° |
| 2026-04-26 06:25 | 21.20393 | 83.39872 | 36776 ft | 522 kts | 117° |
| 2026-04-26 06:26 | 21.17596 | 83.47063 | 36770 ft | 522 kts | 117° |
| 2026-04-26 06:26 | 21.14800 | 83.54240 | 36763 ft | 522 kts | 117° |
| 2026-04-26 06:27 | 21.12002 | 83.61412 | 36762 ft | 522 kts | 117° |
| 2026-04-26 06:27 | 21.09221 | 83.68531 | 36763 ft | 522 kts | 117° |
| 2026-04-26 06:28 | 21.06421 | 83.75689 | 36762 ft | 522 kts | 117° |
| 2026-04-26 06:28 | 21.03614 | 83.82856 | 36754 ft | 522 kts | 117° |
| 2026-04-26 06:29 | 21.00807 | 83.90019 | 36746 ft | 521 kts | 117° |
| 2026-04-26 06:29 | 20.98003 | 83.97168 | 36739 ft | 521 kts | 117° |
| 2026-04-26 06:30 | 20.95200 | 84.04305 | 36751 ft | 520 kts | 117° |
| 2026-04-26 06:30 | 20.92397 | 84.11432 | 36753 ft | 519 kts | 117° |
| 2026-04-26 06:31 | 20.89592 | 84.18551 | 36752 ft | 519 kts | 117° |
| 2026-04-26 06:31 | 20.86786 | 84.25664 | 36751 ft | 519 kts | 117° |
| 2026-04-26 06:32 | 20.83979 | 84.32770 | 36750 ft | 518 kts | 117° |
| 2026-04-26 06:32 | 20.81174 | 84.39861 | 36758 ft | 518 kts | 117° |
| 2026-04-26 06:33 | 20.78362 | 84.46958 | 36759 ft | 518 kts | 117° |
| 2026-04-26 06:33 | 20.75548 | 84.54052 | 36760 ft | 518 kts | 117° |
| 2026-04-26 06:34 | 20.72727 | 84.61151 | 36770 ft | 519 kts | 117° |
| 2026-04-26 06:34 | 20.69915 | 84.68236 | 36767 ft | 519 kts | 117° |
| 2026-04-26 06:35 | 20.67087 | 84.75333 | 36759 ft | 518 kts | 117° |
| 2026-04-26 06:35 | 20.64264 | 84.82398 | 36761 ft | 517 kts | 117° |
| 2026-04-26 06:36 | 20.61449 | 84.89440 | 36766 ft | 516 kts | 117° |
| 2026-04-26 06:36 | 20.58635 | 84.96477 | 36779 ft | 515 kts | 117° |
| 2026-04-26 06:37 | 20.55819 | 85.03506 | 36785 ft | 515 kts | 117° |
| 2026-04-26 06:37 | 20.53002 | 85.10526 | 36776 ft | 514 kts | 118° |
| 2026-04-26 06:38 | 20.50185 | 85.17540 | 36791 ft | 514 kts | 117° |
| 2026-04-26 06:38 | 20.47363 | 85.24555 | 36782 ft | 514 kts | 118° |
| 2026-04-26 06:39 | 20.44548 | 85.31547 | 36782 ft | 514 kts | 118° |
| 2026-04-26 06:39 | 20.41722 | 85.38552 | 36802 ft | 514 kts | 118° |
| 2026-04-26 06:40 | 20.38916 | 85.45498 | 36793 ft | 513 kts | 118° |
| 2026-04-26 06:40 | 20.36090 | 85.52485 | 36799 ft | 513 kts | 118° |
| 2026-04-26 06:41 | 20.33262 | 85.59468 | 36803 ft | 513 kts | 118° |
| 2026-04-26 06:41 | 20.30429 | 85.66456 | 36799 ft | 513 kts | 118° |
| 2026-04-26 06:42 | 20.27596 | 85.73435 | 36799 ft | 513 kts | 118° |
| 2026-04-26 06:42 | 20.24761 | 85.80410 | 36804 ft | 513 kts | 118° |
| 2026-04-26 06:43 | 20.22064 | 85.87457 | 36793 ft | 515 kts | 115° |
| 2026-04-26 06:43 | 20.19542 | 85.94600 | 36797 ft | 515 kts | 115° |
| 2026-04-26 06:44 | 20.16998 | 86.01720 | 36806 ft | 514 kts | 115° |
| 2026-04-26 06:44 | 20.14419 | 86.08812 | 36813 ft | 514 kts | 115° |
| 2026-04-26 06:45 | 20.11832 | 86.15908 | 36811 ft | 514 kts | 115° |
| 2026-04-26 06:45 | 20.09250 | 86.23007 | 36790 ft | 514 kts | 115° |
| 2026-04-26 06:46 | 20.06690 | 86.30054 | 36803 ft | 514 kts | 115° |
| 2026-04-26 06:46 | 20.04113 | 86.37143 | 36812 ft | 514 kts | 115° |
| 2026-04-26 06:47 | 20.01533 | 86.44225 | 36819 ft | 513 kts | 115° |
| 2026-04-26 06:47 | 19.98947 | 86.51312 | 36820 ft | 513 kts | 115° |
| 2026-04-26 06:48 | 19.96364 | 86.58380 | 36820 ft | 513 kts | 115° |
| 2026-04-26 06:48 | 19.93776 | 86.65457 | 36816 ft | 514 kts | 115° |
| 2026-04-26 06:49 | 19.91181 | 86.72540 | 36811 ft | 514 kts | 115° |
| 2026-04-26 06:49 | 19.88575 | 86.79610 | 36814 ft | 514 kts | 115° |
| 2026-04-26 06:50 | 19.85962 | 86.86677 | 36818 ft | 514 kts | 115° |
| 2026-04-26 06:50 | 19.83350 | 86.93737 | 36809 ft | 514 kts | 115° |
| 2026-04-26 06:51 | 19.80733 | 87.00805 | 36820 ft | 514 kts | 115° |
| 2026-04-26 06:51 | 19.76817 | 87.11366 | 36813 ft | 514 kts | 115° |
| 2026-04-26 06:52 | 19.74182 | 87.18460 | 36822 ft | 513 kts | 115° |
| 2026-04-26 06:52 | 19.71563 | 87.25504 | 36827 ft | 513 kts | 115° |
| 2026-04-26 06:53 | 19.68959 | 87.32494 | 36828 ft | 513 kts | 115° |
| 2026-04-26 06:53 | 19.66335 | 87.39527 | 36825 ft | 513 kts | 115° |
| 2026-04-26 06:54 | 19.63709 | 87.46557 | 36830 ft | 512 kts | 115° |
| 2026-04-26 06:54 | 19.61081 | 87.53584 | 36830 ft | 512 kts | 115° |
| 2026-04-26 06:55 | 19.58450 | 87.60609 | 36832 ft | 512 kts | 115° |
| 2026-04-26 06:55 | 19.55816 | 87.67632 | 36829 ft | 512 kts | 115° |
| 2026-04-26 06:56 | 19.53179 | 87.74653 | 36827 ft | 512 kts | 115° |
| 2026-04-26 06:56 | 19.50540 | 87.81670 | 36831 ft | 512 kts | 115° |
| 2026-04-26 06:57 | 19.47898 | 87.88686 | 36829 ft | 512 kts | 115° |
| 2026-04-26 06:57 | 19.45253 | 87.95700 | 36829 ft | 513 kts | 116° |
| 2026-04-26 06:58 | 19.42608 | 88.02707 | 36826 ft | 512 kts | 115° |
| 2026-04-26 06:58 | 19.39964 | 88.09701 | 36830 ft | 511 kts | 115° |
| 2026-04-26 06:59 | 19.37319 | 88.16686 | 36832 ft | 511 kts | 115° |
| 2026-04-26 06:59 | 19.34673 | 88.23666 | 36835 ft | 511 kts | 115° |
| 2026-04-26 07:00 | 19.32025 | 88.30643 | 36836 ft | 510 kts | 115° |
| 2026-04-26 07:00 | 19.29375 | 88.37614 | 36842 ft | 510 kts | 115° |
| 2026-04-26 07:01 | 19.26723 | 88.44583 | 36841 ft | 510 kts | 115° |
| 2026-04-26 07:01 | 19.24068 | 88.51551 | 36837 ft | 511 kts | 115° |
| 2026-04-26 07:02 | 19.21410 | 88.58519 | 36843 ft | 511 kts | 115° |
| 2026-04-26 07:02 | 19.18748 | 88.65487 | 36842 ft | 511 kts | 115° |
| 2026-04-26 07:03 | 19.16134 | 88.72483 | 36842 ft | 512 kts | 115° |
| 2026-04-26 07:03 | 19.13599 | 88.79467 | 36845 ft | 512 kts | 114° |
| 2026-04-26 07:04 | 19.11043 | 88.86508 | 36835 ft | 512 kts | 114° |
| 2026-04-26 07:04 | 19.08480 | 88.93526 | 36846 ft | 511 kts | 114° |
| 2026-04-26 07:05 | 19.05912 | 89.00529 | 36843 ft | 511 kts | 114° |
| 2026-04-26 07:05 | 19.03342 | 89.07522 | 36846 ft | 510 kts | 114° |
| 2026-04-26 07:06 | 19.00773 | 89.14506 | 36846 ft | 510 kts | 115° |
| 2026-04-26 07:06 | 18.98202 | 89.21486 | 36844 ft | 509 kts | 115° |
| 2026-04-26 07:07 | 18.95648 | 89.28414 | 36848 ft | 509 kts | 114° |
| 2026-04-26 07:07 | 18.93072 | 89.35391 | 36850 ft | 509 kts | 114° |
| 2026-04-26 07:08 | 18.90496 | 89.42357 | 36852 ft | 509 kts | 115° |
| 2026-04-26 07:08 | 18.88353 | 89.48147 | 36850 ft | 509 kts | 115° |
| 2026-04-26 07:09 | 18.85769 | 89.55117 | 36852 ft | 509 kts | 115° |
| 2026-04-26 07:09 | 18.83186 | 89.62078 | 36853 ft | 509 kts | 115° |
| 2026-04-26 07:11 | 18.76716 | 89.79475 | 36854 ft | 509 kts | 115° |
| 2026-04-26 07:11 | 18.74125 | 89.86424 | 36851 ft | 509 kts | 115° |
| 2026-04-26 07:12 | 18.71529 | 89.93381 | 36853 ft | 510 kts | 115° |
| 2026-04-26 07:12 | 18.68929 | 90.00336 | 36852 ft | 510 kts | 115° |
| 2026-04-26 07:13 | 18.66327 | 90.07289 | 36852 ft | 510 kts | 115° |
| 2026-04-26 07:13 | 18.63722 | 90.14240 | 36852 ft | 510 kts | 115° |
| 2026-04-26 07:14 | 18.61130 | 90.21150 | 36859 ft | 510 kts | 115° |
| 2026-04-26 07:14 | 18.58519 | 90.28098 | 36855 ft | 510 kts | 115° |
| 2026-04-26 07:15 | 18.55907 | 90.35043 | 36855 ft | 510 kts | 115° |
| 2026-04-26 07:15 | 18.53292 | 90.41985 | 36859 ft | 509 kts | 115° |
| 2026-04-26 07:16 | 18.50676 | 90.48922 | 36857 ft | 509 kts | 115° |
| 2026-04-26 07:16 | 18.48058 | 90.55855 | 36858 ft | 509 kts | 115° |
| 2026-04-26 07:17 | 18.45439 | 90.62783 | 36856 ft | 509 kts | 115° |
| 2026-04-26 07:17 | 18.42816 | 90.69713 | 36852 ft | 508 kts | 114° |
| 2026-04-26 07:18 | 18.40197 | 90.76621 | 36856 ft | 507 kts | 114° |
| 2026-04-26 07:18 | 18.37584 | 90.83508 | 36857 ft | 507 kts | 114° |
| 2026-04-26 07:19 | 18.34982 | 90.90356 | 36861 ft | 506 kts | 114° |
| 2026-04-26 07:19 | 18.32365 | 90.97232 | 36859 ft | 506 kts | 114° |
| 2026-04-26 07:20 | 18.29748 | 91.04103 | 36860 ft | 506 kts | 114° |
| 2026-04-26 07:20 | 18.27129 | 91.10968 | 36861 ft | 505 kts | 114° |
| 2026-04-26 07:21 | 18.24509 | 91.17830 | 36862 ft | 505 kts | 114° |
| 2026-04-26 07:21 | 18.21887 | 91.24686 | 36862 ft | 505 kts | 114° |
| 2026-04-26 07:22 | 18.19263 | 91.31541 | 36864 ft | 505 kts | 114° |
| 2026-04-26 07:22 | 18.16636 | 91.38395 | 36860 ft | 505 kts | 114° |
| 2026-04-26 07:23 | 18.14006 | 91.45248 | 36862 ft | 505 kts | 114° |
| 2026-04-26 07:23 | 18.11370 | 91.52109 | 36862 ft | 506 kts | 114° |
| 2026-04-26 07:24 | 18.08736 | 91.58956 | 36865 ft | 506 kts | 114° |
| 2026-04-26 07:24 | 18.06094 | 91.65816 | 36870 ft | 505 kts | 114° |
| 2026-04-26 07:25 | 18.03472 | 91.72617 | 36857 ft | 505 kts | 114° |
| 2026-04-26 07:25 | 18.00830 | 91.79460 | 36861 ft | 505 kts | 114° |
| 2026-04-26 07:26 | 17.98187 | 91.86299 | 36871 ft | 505 kts | 114° |
| 2026-04-26 07:26 | 17.95543 | 91.93134 | 36860 ft | 505 kts | 114° |
| 2026-04-26 07:27 | 17.92895 | 91.99967 | 36865 ft | 505 kts | 114° |
| 2026-04-26 07:27 | 17.90215 | 92.06784 | 36860 ft | 505 kts | 115° |
| 2026-04-26 07:28 | 17.87510 | 92.13597 | 36862 ft | 505 kts | 115° |
| 2026-04-26 07:28 | 17.84807 | 92.20403 | 36866 ft | 505 kts | 115° |
| 2026-04-26 07:29 | 17.82107 | 92.27208 | 36865 ft | 505 kts | 115° |
| 2026-04-26 07:29 | 17.79420 | 92.33976 | 36868 ft | 505 kts | 114° |
| 2026-04-26 07:30 | 17.76716 | 92.40781 | 36866 ft | 505 kts | 115° |
| 2026-04-26 07:30 | 17.74009 | 92.47587 | 36860 ft | 505 kts | 115° |
| 2026-04-26 07:31 | 17.71302 | 92.54382 | 36875 ft | 505 kts | 114° |
| 2026-04-26 07:31 | 17.68592 | 92.61178 | 36855 ft | 505 kts | 114° |
| 2026-04-26 07:32 | 17.65881 | 92.67967 | 36864 ft | 504 kts | 114° |
| 2026-04-26 07:32 | 17.63169 | 92.74751 | 36871 ft | 504 kts | 114° |
| 2026-04-26 07:33 | 17.60455 | 92.81533 | 36859 ft | 504 kts | 114° |
| 2026-04-26 07:33 | 17.57739 | 92.88313 | 36864 ft | 504 kts | 114° |
| 2026-04-26 07:34 | 17.55019 | 92.95092 | 36867 ft | 505 kts | 114° |
| 2026-04-26 07:34 | 17.52297 | 93.01870 | 36856 ft | 505 kts | 114° |
| 2026-04-26 07:35 | 17.49573 | 93.08648 | 36856 ft | 505 kts | 114° |
| 2026-04-26 07:35 | 17.46844 | 93.15427 | 36865 ft | 505 kts | 114° |
| 2026-04-26 07:36 | 17.44112 | 93.22206 | 36859 ft | 505 kts | 114° |
| 2026-04-26 07:36 | 17.41378 | 93.28985 | 36862 ft | 505 kts | 115° |
| 2026-04-26 07:37 | 17.38639 | 93.35766 | 36863 ft | 506 kts | 115° |
| 2026-04-26 07:37 | 17.35898 | 93.42545 | 36861 ft | 505 kts | 115° |
| 2026-04-26 07:38 | 17.33157 | 93.49317 | 36850 ft | 505 kts | 115° |
| 2026-04-26 07:38 | 17.30415 | 93.56083 | 36866 ft | 505 kts | 115° |
| 2026-04-26 07:39 | 17.27675 | 93.62836 | 36869 ft | 504 kts | 115° |
| 2026-04-26 07:39 | 17.24931 | 93.69591 | 36859 ft | 504 kts | 115° |
| 2026-04-26 07:40 | 17.22187 | 93.76342 | 36857 ft | 504 kts | 115° |
| 2026-04-26 07:40 | 17.19458 | 93.83045 | 36863 ft | 504 kts | 115° |
| 2026-04-26 07:41 | 17.16709 | 93.89790 | 36864 ft | 504 kts | 115° |
| 2026-04-26 07:41 | 17.13958 | 93.96533 | 36860 ft | 504 kts | 115° |
| 2026-04-26 07:42 | 17.11205 | 94.03274 | 36857 ft | 504 kts | 115° |
| 2026-04-26 07:42 | 17.08449 | 94.10014 | 36864 ft | 504 kts | 115° |
| 2026-04-26 07:43 | 17.05690 | 94.16754 | 36861 ft | 504 kts | 115° |
| 2026-04-26 07:43 | 17.02929 | 94.23494 | 36856 ft | 505 kts | 115° |
| 2026-04-26 07:44 | 17.00164 | 94.30234 | 36851 ft | 505 kts | 115° |
| 2026-04-26 07:44 | 16.97398 | 94.36968 | 36859 ft | 504 kts | 115° |
| 2026-04-26 07:45 | 16.94633 | 94.43696 | 36858 ft | 504 kts | 115° |
| 2026-04-26 07:45 | 16.91866 | 94.50418 | 36845 ft | 504 kts | 115° |
| 2026-04-26 07:46 | 16.89099 | 94.57136 | 36847 ft | 503 kts | 115° |
| 2026-04-26 07:46 | 16.86348 | 94.63805 | 36848 ft | 503 kts | 115° |
| 2026-04-26 07:47 | 16.83578 | 94.70518 | 36846 ft | 503 kts | 115° |
| 2026-04-26 07:47 | 16.80798 | 94.77227 | 36840 ft | 503 kts | 116° |
| 2026-04-26 07:48 | 16.77739 | 94.83790 | 36840 ft | 503 kts | 119° |
| 2026-04-26 07:48 | 16.74521 | 94.90264 | 36824 ft | 503 kts | 119° |
| 2026-04-26 07:49 | 16.71310 | 94.96743 | 36832 ft | 503 kts | 119° |
| 2026-04-26 07:49 | 16.68125 | 95.03249 | 36830 ft | 503 kts | 119° |
| 2026-04-26 07:50 | 16.63375 | 95.13002 | 36819 ft | 503 kts | 119° |
| 2026-04-26 07:50 | 16.60202 | 95.19509 | 36838 ft | 503 kts | 119° |
| 2026-04-26 07:51 | 16.57032 | 95.25999 | 36837 ft | 502 kts | 119° |
| 2026-04-26 07:51 | 16.53884 | 95.32437 | 36828 ft | 502 kts | 119° |
| 2026-04-26 07:52 | 16.50715 | 95.38910 | 36840 ft | 501 kts | 119° |
| 2026-04-26 07:52 | 16.47547 | 95.45376 | 36839 ft | 501 kts | 119° |
| 2026-04-26 07:53 | 16.44380 | 95.51834 | 36838 ft | 500 kts | 119° |
| 2026-04-26 07:53 | 16.41208 | 95.58295 | 36842 ft | 500 kts | 119° |
| 2026-04-26 07:54 | 16.38039 | 95.64744 | 36835 ft | 500 kts | 119° |
| 2026-04-26 07:54 | 16.34870 | 95.71189 | 36843 ft | 500 kts | 119° |
| 2026-04-26 07:55 | 16.31698 | 95.77632 | 36850 ft | 500 kts | 119° |
| 2026-04-26 07:55 | 16.29059 | 95.82987 | 36851 ft | 500 kts | 119° |
| 2026-04-26 07:56 | 16.25884 | 95.89427 | 36856 ft | 500 kts | 118° |
| 2026-04-26 07:56 | 16.22706 | 95.95865 | 36855 ft | 500 kts | 118° |
| 2026-04-26 07:57 | 16.19526 | 96.02303 | 36860 ft | 500 kts | 118° |
| 2026-04-26 07:57 | 16.16343 | 96.08739 | 36859 ft | 500 kts | 118° |
| 2026-04-26 07:58 | 16.13158 | 96.15174 | 36862 ft | 500 kts | 118° |
| 2026-04-26 07:58 | 16.09970 | 96.21608 | 36860 ft | 501 kts | 118° |
| 2026-04-26 07:59 | 16.06778 | 96.28045 | 36858 ft | 501 kts | 118° |
| 2026-04-26 07:59 | 16.03585 | 96.34478 | 36854 ft | 501 kts | 118° |
| 2026-04-26 08:00 | 16.00386 | 96.40919 | 36849 ft | 501 kts | 118° |
| 2026-04-26 08:00 | 15.97182 | 96.47361 | 36858 ft | 502 kts | 119° |
| 2026-04-26 08:01 | 15.93975 | 96.53805 | 36856 ft | 502 kts | 119° |
| 2026-04-26 08:01 | 15.90785 | 96.60209 | 36855 ft | 502 kts | 119° |
| 2026-04-26 08:02 | 15.87572 | 96.66653 | 36857 ft | 502 kts | 118° |
| 2026-04-26 08:02 | 15.84341 | 96.73127 | 36850 ft | 501 kts | 118° |
| 2026-04-26 08:03 | 15.81155 | 96.79505 | 36852 ft | 500 kts | 119° |
| 2026-04-26 08:03 | 15.77950 | 96.85916 | 36851 ft | 500 kts | 119° |
| 2026-04-26 08:04 | 15.74745 | 96.92319 | 36847 ft | 500 kts | 119° |
| 2026-04-26 08:04 | 15.71541 | 96.98716 | 36852 ft | 499 kts | 119° |
| 2026-04-26 08:05 | 15.68336 | 97.05109 | 36855 ft | 499 kts | 119° |
| 2026-04-26 08:05 | 15.65130 | 97.11498 | 36858 ft | 499 kts | 119° |
| 2026-04-26 08:06 | 15.61923 | 97.17883 | 36855 ft | 499 kts | 119° |
| 2026-04-26 08:06 | 15.58715 | 97.24265 | 36855 ft | 499 kts | 119° |
| 2026-04-26 08:07 | 15.55502 | 97.30652 | 36853 ft | 499 kts | 119° |
| 2026-04-26 08:07 | 15.52290 | 97.37031 | 36857 ft | 499 kts | 119° |
| 2026-04-26 08:08 | 15.49080 | 97.43400 | 36856 ft | 498 kts | 119° |
| 2026-04-26 08:08 | 15.45895 | 97.49714 | 36851 ft | 497 kts | 119° |
| 2026-04-26 08:09 | 15.42692 | 97.56059 | 36855 ft | 496 kts | 119° |
| 2026-04-26 08:09 | 15.39490 | 97.62395 | 36857 ft | 496 kts | 119° |
| 2026-04-26 08:10 | 15.36291 | 97.68721 | 36853 ft | 495 kts | 119° |
| 2026-04-26 08:10 | 15.33092 | 97.75040 | 36866 ft | 495 kts | 119° |
| 2026-04-26 08:11 | 15.29893 | 97.81354 | 36859 ft | 495 kts | 119° |
| 2026-04-26 08:11 | 15.26693 | 97.87664 | 36862 ft | 495 kts | 119° |
| 2026-04-26 08:12 | 15.23492 | 97.93972 | 36869 ft | 495 kts | 119° |
| 2026-04-26 08:12 | 15.20293 | 98.00271 | 36862 ft | 494 kts | 118° |
| 2026-04-26 08:13 | 15.17090 | 98.06573 | 36868 ft | 494 kts | 118° |
| 2026-04-26 08:13 | 15.13892 | 98.12861 | 36871 ft | 493 kts | 118° |
| 2026-04-26 08:14 | 15.10696 | 98.19138 | 36871 ft | 493 kts | 118° |
| 2026-04-26 08:14 | 15.07521 | 98.25432 | 36868 ft | 493 kts | 118° |
| 2026-04-26 08:15 | 15.04391 | 98.31746 | 36876 ft | 493 kts | 118° |
| 2026-04-26 08:15 | 15.01283 | 98.38020 | 36861 ft | 493 kts | 118° |
| 2026-04-26 08:16 | 14.98174 | 98.44276 | 36835 ft | 477 kts | 118° |
| 2026-04-26 08:16 | 14.96676 | 98.47287 | 36853 ft | 463 kts | 118° |
| 2026-04-26 08:16 | 14.95220 | 98.50210 | 36837 ft | 449 kts | 118° |
| 2026-04-26 08:17 | 14.93820 | 98.53020 | 36774 ft | 438 kts | 118° |
| 2026-04-26 08:17 | 14.92413 | 98.55840 | 36278 ft | 439 kts | 118° |
| 2026-04-26 08:17 | 14.91013 | 98.58645 | 35730 ft | 442 kts | 118° |
| 2026-04-26 08:17 | 14.89603 | 98.61468 | 35280 ft | 442 kts | 117° |
| 2026-04-26 08:18 | 14.88194 | 98.64290 | 34919 ft | 439 kts | 117° |
| 2026-04-26 08:18 | 14.86798 | 98.67085 | 34594 ft | 436 kts | 117° |
| 2026-04-26 08:18 | 14.85410 | 98.69863 | 34254 ft | 434 kts | 117° |
| 2026-04-26 08:18 | 14.84031 | 98.72622 | 33827 ft | 435 kts | 117° |
| 2026-04-26 08:19 | 14.82617 | 98.75451 | 32691 ft | 451 kts | 117° |
| 2026-04-26 08:19 | 14.81162 | 98.78363 | 31367 ft | 473 kts | 117° |
| 2026-04-26 08:19 | 14.79645 | 98.81395 | 30619 ft | 475 kts | 117° |
| 2026-04-26 08:19 | 14.78141 | 98.84399 | 30091 ft | 465 kts | 117° |
| 2026-04-26 08:20 | 14.76666 | 98.87343 | 29476 ft | 457 kts | 117° |
| 2026-04-26 08:20 | 14.75217 | 98.90235 | 28791 ft | 449 kts | 116° |
| 2026-04-26 08:20 | 14.73793 | 98.93076 | 28059 ft | 444 kts | 116° |
| 2026-04-26 08:20 | 14.72378 | 98.95899 | 27303 ft | 439 kts | 116° |
| 2026-04-26 08:21 | 14.70982 | 98.98681 | 26579 ft | 435 kts | 116° |
| 2026-04-26 08:21 | 14.69595 | 99.01447 | 25879 ft | 430 kts | 116° |
| 2026-04-26 08:21 | 14.68227 | 99.04174 | 25222 ft | 425 kts | 116° |
| 2026-04-26 08:21 | 14.66874 | 99.06869 | 24573 ft | 420 kts | 116° |
| 2026-04-26 08:22 | 14.65534 | 99.09536 | 23937 ft | 416 kts | 116° |
| 2026-04-26 08:22 | 14.64215 | 99.12162 | 23478 ft | 407 kts | 116° |
| 2026-04-26 08:22 | 14.62922 | 99.14735 | 22957 ft | 399 kts | 116° |
| 2026-04-26 08:22 | 14.61658 | 99.17250 | 22508 ft | 390 kts | 116° |
| 2026-04-26 08:23 | 14.60422 | 99.19706 | 22079 ft | 382 kts | 116° |
| 2026-04-26 08:23 | 14.59210 | 99.22116 | 21668 ft | 374 kts | 116° |
| 2026-04-26 08:23 | 14.58036 | 99.24451 | 21291 ft | 369 kts | 116° |
| 2026-04-26 08:23 | 14.56843 | 99.26823 | 20929 ft | 379 kts | 116° |
| 2026-04-26 08:24 | 14.55593 | 99.29308 | 20506 ft | 399 kts | 116° |
| 2026-04-26 08:24 | 14.54314 | 99.31851 | 20065 ft | 399 kts | 117° |
| 2026-04-26 08:24 | 14.53039 | 99.34378 | 19638 ft | 396 kts | 116° |
| 2026-04-26 08:24 | 14.51773 | 99.36890 | 19203 ft | 394 kts | 116° |
| 2026-04-26 08:25 | 14.50512 | 99.39392 | 18781 ft | 392 kts | 117° |
| 2026-04-26 08:25 | 14.49257 | 99.41879 | 18355 ft | 390 kts | 117° |
| 2026-04-26 08:25 | 14.48009 | 99.44354 | 17915 ft | 388 kts | 117° |
| 2026-04-26 08:25 | 14.46768 | 99.46817 | 17462 ft | 385 kts | 117° |
| 2026-04-26 08:26 | 14.45534 | 99.49262 | 17026 ft | 383 kts | 117° |
| 2026-04-26 08:26 | 14.44307 | 99.51691 | 16608 ft | 379 kts | 117° |
| 2026-04-26 08:26 | 14.43212 | 99.54150 | 16284 ft | 374 kts | 110° |
| 2026-04-26 08:26 | 14.42359 | 99.56646 | 15922 ft | 370 kts | 108° |
| 2026-04-26 08:27 | 14.41582 | 99.59174 | 15531 ft | 367 kts | 107° |
| 2026-04-26 08:27 | 14.40825 | 99.61679 | 15177 ft | 364 kts | 107° |
| 2026-04-26 08:27 | 14.40066 | 99.64155 | 14816 ft | 361 kts | 108° |
| 2026-04-26 08:27 | 14.39298 | 99.66611 | 14433 ft | 359 kts | 108° |
| 2026-04-26 08:28 | 14.38521 | 99.69056 | 14031 ft | 358 kts | 108° |
| 2026-04-26 08:28 | 14.37740 | 99.71490 | 13639 ft | 358 kts | 109° |
| 2026-04-26 08:28 | 14.36948 | 99.73941 | 13180 ft | 364 kts | 109° |
| 2026-04-26 08:28 | 14.36127 | 99.76472 | 12814 ft | 375 kts | 109° |
| 2026-04-26 08:29 | 14.35301 | 99.79018 | 12356 ft | 375 kts | 109° |
| 2026-04-26 08:29 | 14.34472 | 99.81571 | 11772 ft | 376 kts | 109° |
| 2026-04-26 08:29 | 14.33646 | 99.84110 | 11315 ft | 373 kts | 109° |
| 2026-04-26 08:29 | 14.32825 | 99.86633 | 10893 ft | 369 kts | 109° |
| 2026-04-26 08:30 | 14.32015 | 99.89126 | 10425 ft | 366 kts | 109° |
| 2026-04-26 08:30 | 14.31204 | 99.91618 | 9912 ft | 366 kts | 109° |
| 2026-04-26 08:30 | 14.30396 | 99.94101 | 9419 ft | 364 kts | 109° |
| 2026-04-26 08:30 | 14.29594 | 99.96565 | 8939 ft | 361 kts | 109° |
| 2026-04-26 08:31 | 14.28798 | 99.99007 | 8461 ft | 358 kts | 109° |
| 2026-04-26 08:31 | 14.28004 | 100.01445 | 8084 ft | 356 kts | 109° |
| 2026-04-26 08:31 | 14.27212 | 100.03874 | 7995 ft | 360 kts | 109° |
| 2026-04-26 08:31 | 14.26447 | 100.06311 | 7940 ft | 355 kts | 105° |
| 2026-04-26 08:32 | 14.26029 | 100.08828 | 7947 ft | 356 kts | 97° |
| 2026-04-26 08:32 | 14.25778 | 100.11296 | 7926 ft | 335 kts | 96° |
| 2026-04-26 08:32 | 14.25545 | 100.13602 | 7887 ft | 313 kts | 97° |
| 2026-04-26 08:32 | 14.25301 | 100.15767 | 7732 ft | 296 kts | 97° |
| 2026-04-26 08:33 | 14.25057 | 100.17817 | 7545 ft | 284 kts | 98° |
| 2026-04-26 08:33 | 14.24813 | 100.19804 | 7317 ft | 282 kts | 98° |
| 2026-04-26 08:33 | 14.24568 | 100.21785 | 7175 ft | 275 kts | 98° |
| 2026-04-26 08:33 | 14.24326 | 100.23731 | 6927 ft | 273 kts | 98° |
| 2026-04-26 08:34 | 14.24083 | 100.25677 | 6615 ft | 274 kts | 98° |
| 2026-04-26 08:34 | 14.23840 | 100.27620 | 6366 ft | 272 kts | 98° |
| 2026-04-26 08:34 | 14.23599 | 100.29550 | 6085 ft | 272 kts | 98° |
| 2026-04-26 08:34 | 14.23356 | 100.31479 | 5824 ft | 270 kts | 98° |
| 2026-04-26 08:35 | 14.23117 | 100.33392 | 5568 ft | 269 kts | 98° |
| 2026-04-26 08:35 | 14.22877 | 100.35298 | 5336 ft | 266 kts | 98° |
| 2026-04-26 08:35 | 14.22641 | 100.37181 | 5072 ft | 265 kts | 98° |
| 2026-04-26 08:35 | 14.22403 | 100.39074 | 5020 ft | 268 kts | 98° |
| 2026-04-26 08:36 | 14.22163 | 100.40980 | 4985 ft | 270 kts | 98° |
| 2026-04-26 08:36 | 14.21922 | 100.42892 | 4987 ft | 267 kts | 98° |
| 2026-04-26 08:36 | 14.21685 | 100.44787 | 4976 ft | 265 kts | 98° |
| 2026-04-26 08:36 | 14.21451 | 100.46651 | 4813 ft | 259 kts | 99° |
| 2026-04-26 08:37 | 14.21219 | 100.48488 | 4410 ft | 261 kts | 98° |
| 2026-04-26 08:37 | 14.20984 | 100.50342 | 4131 ft | 260 kts | 98° |
| 2026-04-26 08:37 | 14.20751 | 100.52186 | 3891 ft | 259 kts | 98° |
| 2026-04-26 08:37 | 14.20520 | 100.54024 | 3650 ft | 258 kts | 98° |
| 2026-04-26 08:38 | 14.20290 | 100.55849 | 3450 ft | 255 kts | 98° |
| 2026-04-26 08:38 | 14.20065 | 100.57636 | 3354 ft | 246 kts | 98° |
| 2026-04-26 08:38 | 14.19849 | 100.59346 | 3274 ft | 234 kts | 99° |
| 2026-04-26 08:38 | 14.19645 | 100.60975 | 3084 ft | 228 kts | 99° |
| 2026-04-26 08:39 | 14.19435 | 100.62584 | 2822 ft | 225 kts | 99° |
| 2026-04-26 08:39 | 14.19232 | 100.64186 | 2556 ft | 225 kts | 98° |
| 2026-04-26 08:39 | 14.18847 | 100.65735 | 2475 ft | 224 kts | 123° |
| 2026-04-26 08:39 | 14.17709 | 100.66769 | 2459 ft | 221 kts | 158° |
| 2026-04-26 08:40 | 14.16301 | 100.67223 | 2464 ft | 209 kts | 165° |
| 2026-04-26 08:40 | 14.14958 | 100.67598 | 2466 ft | 191 kts | 165° |
| 2026-04-26 08:40 | 14.13697 | 100.67948 | 2449 ft | 181 kts | 165° |
| 2026-04-26 08:40 | 14.12502 | 100.68284 | 2477 ft | 182 kts | 166° |
| 2026-04-26 08:41 | 14.11285 | 100.68628 | 2468 ft | 181 kts | 165° |
| 2026-04-26 08:41 | 14.10079 | 100.68971 | 2475 ft | 179 kts | 165° |
| 2026-04-26 08:41 | 14.08877 | 100.69311 | 2464 ft | 178 kts | 165° |
| 2026-04-26 08:41 | 14.07655 | 100.69475 | 2468 ft | 179 kts | 193° |
| 2026-04-26 08:42 | 14.06521 | 100.68929 | 2490 ft | 183 kts | 205° |
| 2026-04-26 08:42 | 14.05380 | 100.68379 | 2475 ft | 179 kts | 205° |
| 2026-04-26 08:42 | 14.04306 | 100.67814 | 2446 ft | 168 kts | 207° |
| 2026-04-26 08:42 | 14.03334 | 100.67275 | 2322 ft | 150 kts | 207° |
| 2026-04-26 08:43 | 14.02423 | 100.66763 | 2108 ft | 148 kts | 207° |
| 2026-04-26 08:43 | 14.01541 | 100.66265 | 1941 ft | 144 kts | 206° |
| 2026-04-26 08:43 | 14.00661 | 100.65769 | 1761 ft | 145 kts | 207° |
| 2026-04-26 08:43 | 13.99772 | 100.65268 | 1580 ft | 147 kts | 208° |
| 2026-04-26 08:44 | 13.99178 | 100.64933 | 1475 ft | 147 kts | 207° |
| 2026-04-26 08:44 | 13.98285 | 100.64429 | 1273 ft | 146 kts | 208° |
| 2026-04-26 08:44 | 13.97406 | 100.63932 | 1092 ft | 143 kts | 208° |
| 2026-04-26 08:44 | 13.96531 | 100.63439 | 914 ft | 142 kts | 210° |
| 2026-04-26 08:45 | 13.95665 | 100.62949 | 723 ft | 139 kts | 207° |
| 2026-04-26 08:45 | 13.94846 | 100.62487 | 559 ft | 131 kts | 209° |
| 2026-04-26 08:45 | 13.94032 | 100.62023 | 379 ft | 138 kts | 207° |
| 2026-04-26 08:45 | 13.93213 | 100.61562 | 232 ft | 130 kts | 205° |
| 2026-04-26 08:46 | 13.92432 | 100.61125 | 53 ft | 125 kts | 206° |
| 2026-04-26 08:46 | 13.91710 | 100.60723 | 27 ft | 106 kts | 205° |
| 2026-04-26 08:46 | 13.91145 | 100.60408 | 16 ft | 76 kts | 209° |
| 2026-04-26 08:46 | 13.90789 | 100.60205 | 17 ft | 41 kts | 212° |
| 2026-04-26 08:47 | 13.90655 | 100.60095 | 18 ft | 14 kts | 226° |
| 2026-04-26 08:47 | 13.90602 | 100.60019 | 15 ft | 13 kts | 239° |
| 2026-04-26 08:47 | 13.90606 | 100.59942 | 16 ft | 12 kts | 328° |
| 2026-04-26 08:47 | 13.90685 | 100.59957 | 16 ft | 12 kts | 26° |
| 2026-04-26 08:48 | 13.90758 | 100.59996 | 16 ft | 12 kts | 28° |
| 2026-04-26 08:48 | 13.90827 | 100.60035 | 16 ft | 11 kts | 29° |
| 2026-04-26 08:48 | 13.90897 | 100.60076 | 16 ft | 11 kts | 30° |
| 2026-04-26 08:48 | 13.90965 | 100.60114 | 16 ft | 11 kts | 27° |
| 2026-04-26 08:49 | 13.91032 | 100.60150 | 17 ft | 11 kts | 28° |
| 2026-04-26 08:49 | 13.91118 | 100.60199 | 16 ft | 19 kts | 29° |
| 2026-04-26 08:49 | 13.91263 | 100.60280 | 16 ft | 25 kts | 28° |
| 2026-04-26 08:49 | 13.91401 | 100.60329 | 16 ft | 19 kts | 324° |
| 2026-04-26 08:50 | 13.91451 | 100.60224 | 16 ft | 11 kts | 252° |
| 2026-04-26 08:50 | 13.91396 | 100.60187 | 18 ft | 1 kts | 208° |
| 2026-04-26 08:50 | 13.91395 | 100.60186 | 17 ft | 0 kts | 208° |